ESMS/MMX METAR and TAF weather

Enter ICAO airport designator
Station Type Date Time Source
ESMS METAR 2018/10/22 15:50 UTC NOAA

ESMS 221550Z 30012KT 9999 SCT042 09/03 Q1024


Station Type Date Time Source
ESMS Decoded METAR 2018/10/22 15:50 UTC NOAA

Malmo / Sturup, Sweden (ESMS) 55-33N 013-22E
Oct 22, 2018 - 11:50 AM EDT / 2018.10.22 1550 UTC
Wind: from the WNW (300 degrees) at 14 MPH (12 KT):0
Visibility: greater than 7 mile(s):0
Sky conditions: partly cloudy
Temperature: 48 F (9 C)
Dew Point: 37 F (3 C)
Relative Humidity: 66%
Pressure (altimeter): 30.24 in. Hg (1024 hPa)
ob: ESMS 221550Z 30012KT 9999 SCT042 09/03 Q1024
cycle: 16

Station Type Date Time Source
ESMS TAF 2018/10/22 12:33 UTC NOAA

TAF ESMS 221112Z 2212/2312 31018KT 9999 SCT030
TEMPO 2212/2216 30020G32KT
BECMG 2216/2218 25008KT
BECMG 2300/2302 26018KT RA
TEMPO 2302/2307 27022G35KT 4000 -RADZ BKN010
BECMG 2307/2310 29022G38KT NSW SCT020TCU


Example: see airport list